createdAt,value
2022-08-22T00:01:34.510Z,5.45
2022-08-22T00:02:44.022Z,5.43
2022-08-22T00:03:03.074Z,2.90
2022-08-22T00:03:04.029Z,3.70
2022-08-22T00:04:21.321Z,5.22
2022-08-22T00:07:05.166Z,5.28
2022-08-22T00:09:48.152Z,5.25
2022-08-22T00:12:46.111Z,5.45
2022-08-22T00:15:42.264Z,5.72
2022-08-22T00:18:16.266Z,5.30
2022-08-22T00:20:45.057Z,5.68
2022-08-22T00:23:25.576Z,5.15
2022-08-22T00:26:43.319Z,4.90
2022-08-22T00:29:15.337Z,5.40
2022-08-22T00:32:03.972Z,5.55
2022-08-22T00:34:35.402Z,5.50
2022-08-22T00:37:19.641Z,5.60
2022-08-22T00:39:51.911Z,5.20
2022-08-22T00:42:32.086Z,4.95
2022-08-22T00:45:16.699Z,5.43
2022-08-22T00:48:12.350Z,4.85
2022-08-22T00:51:09.528Z,5.40
2022-08-22T00:53:43.120Z,4.73
2022-08-22T00:56:47.114Z,5.43
2022-08-22T00:59:23.761Z,6.32
2022-08-22T01:02:19.176Z,5.60
2022-08-22T01:05:24.622Z,5.35
2022-08-22T01:07:59.674Z,5.82
2022-08-22T01:10:33.154Z,5.20
2022-08-22T01:13:11.124Z,5.40
2022-08-22T01:15:38.966Z,4.80
2022-08-22T01:18:25.230Z,5.22
2022-08-22T01:21:06.805Z,5.50
2022-08-22T01:23:52.541Z,5.28
2022-08-22T01:26:52.348Z,4.37
2022-08-22T01:29:31.401Z,5.05
2022-08-22T01:32:30.090Z,4.47
2022-08-22T01:35:13.557Z,5.47
2022-08-22T01:38:00.072Z,4.50
2022-08-22T01:40:53.373Z,4.55
2022-08-22T01:43:58.563Z,4.18
2022-08-22T01:46:42.944Z,4.65
2022-08-22T01:49:16.404Z,4.20
2022-08-22T01:51:51.643Z,4.80
2022-08-22T01:54:49.020Z,3.53
2022-08-22T01:57:16.402Z,4.70
2022-08-22T01:59:46.910Z,3.65
2022-08-22T02:02:47.241Z,4.28
2022-08-22T02:05:18.519Z,4.07
2022-08-22T02:07:57.919Z,4.50
2022-08-22T02:10:45.174Z,4.53
2022-08-22T02:13:13.002Z,3.90
2022-08-22T02:15:46.960Z,4.18
2022-08-22T02:18:27.185Z,4.22
2022-08-22T02:21:05.743Z,4.25
2022-08-22T02:23:36.239Z,3.70
2022-08-22T02:26:09.705Z,4.43
2022-08-22T02:28:57.205Z,4.10
2022-08-22T02:31:32.605Z,4.32
2022-08-22T02:34:02.018Z,4.45
2022-08-22T02:36:34.509Z,3.50
2022-08-22T02:39:21.106Z,4.07
2022-08-22T02:42:00.033Z,3.72
2022-08-22T02:44:36.427Z,4.82
2022-08-22T02:47:15.505Z,3.92
2022-08-22T02:49:46.586Z,4.00
2022-08-22T02:52:21.782Z,4.20
2022-08-22T02:54:54.408Z,4.75
2022-08-22T02:57:28.680Z,4.50
2022-08-22T03:00:31.844Z,4.65
2022-08-22T03:03:23.637Z,4.00
2022-08-22T03:06:01.714Z,5.05
2022-08-22T03:08:35.528Z,4.32
2022-08-22T03:11:30.063Z,4.60
2022-08-22T03:14:07.408Z,4.87
2022-08-22T03:17:09.175Z,5.10
2022-08-22T03:19:51.686Z,3.97
2022-08-22T03:22:32.140Z,5.72
2022-08-22T03:25:10.441Z,5.40
2022-08-22T03:27:42.310Z,5.50
2022-08-22T03:30:21.670Z,4.78
2022-08-22T03:32:59.141Z,4.12
2022-08-22T03:35:32.869Z,5.22
2022-08-22T03:38:13.652Z,5.43
2022-08-22T03:41:09.505Z,6.07
2022-08-22T03:44:04.881Z,7.80
2022-08-22T03:46:55.799Z,6.70
2022-08-22T03:49:41.960Z,6.35
2022-08-22T03:52:32.949Z,5.75
2022-08-22T03:55:14.970Z,5.62
2022-08-22T03:58:04.421Z,6.03
2022-08-22T04:00:35.275Z,5.53
2022-08-22T04:03:11.938Z,6.72
2022-08-22T04:08:44.007Z,6.12
2022-08-22T04:11:36.931Z,6.55
2022-08-22T04:14:26.457Z,6.00
2022-08-22T04:16:53.666Z,5.70
2022-08-22T04:19:54.143Z,6.65
2022-08-22T04:22:33.512Z,5.80
2022-08-22T04:25:08.532Z,6.00
2022-08-22T04:27:44.114Z,5.35
2022-08-22T04:30:31.365Z,5.93
2022-08-22T04:33:05.110Z,5.05
2022-08-22T04:35:43.412Z,6.10
2022-08-22T04:38:29.896Z,5.35
2022-08-22T04:41:03.868Z,5.55
2022-08-22T04:43:37.384Z,4.03
2022-08-22T04:46:10.655Z,6.43
2022-08-22T04:48:45.392Z,5.62
2022-08-22T04:51:22.080Z,6.22
2022-08-22T04:54:11.076Z,6.62
2022-08-22T04:57:03.381Z,6.10
2022-08-22T04:59:30.961Z,6.60
2022-08-22T05:02:06.694Z,5.97
2022-08-22T05:04:40.885Z,5.68
2022-08-22T05:07:20.505Z,6.40
2022-08-22T05:09:53.279Z,5.62
2022-08-22T05:12:38.648Z,6.05
2022-08-22T05:15:10.170Z,5.00
2022-08-22T05:17:38.322Z,5.28
2022-08-22T05:20:09.315Z,5.80
2022-08-22T05:22:40.086Z,4.95
2022-08-22T05:25:13.388Z,4.82
2022-08-22T05:27:46.195Z,6.37
2022-08-22T05:30:25.598Z,6.10
2022-08-22T05:33:18.525Z,4.97
2022-08-22T05:35:52.449Z,5.22
2022-08-22T05:38:23.451Z,5.12
2022-08-22T05:40:54.536Z,5.37
2022-08-22T05:43:21.893Z,5.85
2022-08-22T05:45:49.259Z,6.43
2022-08-22T05:48:18.640Z,5.78
2022-08-22T05:50:54.906Z,6.65
2022-08-22T05:53:30.660Z,6.72
2022-08-22T05:56:13.095Z,6.20
2022-08-22T05:58:43.531Z,5.53
2022-08-22T06:01:36.201Z,6.47
2022-08-22T06:04:07.032Z,6.75
2022-08-22T06:06:43.282Z,6.75
2022-08-22T06:09:34.679Z,8.15
2022-08-22T06:12:05.917Z,7.40
2022-08-22T06:14:51.418Z,7.65
2022-08-22T06:17:21.729Z,6.95
2022-08-22T06:19:50.427Z,7.10
2022-08-22T06:22:21.296Z,7.65
2022-08-22T06:24:49.002Z,7.07
2022-08-22T06:27:16.828Z,7.22
2022-08-22T06:29:46.857Z,6.93
2022-08-22T06:32:16.663Z,7.35
2022-08-22T06:35:06.399Z,7.18
2022-08-22T06:37:37.590Z,7.82
2022-08-22T06:40:06.046Z,7.28
2022-08-22T06:42:34.723Z,7.35
2022-08-22T06:45:07.762Z,8.93
2022-08-22T06:47:50.255Z,7.43
2022-08-22T06:50:36.123Z,6.28
2022-08-22T06:53:23.174Z,8.77
2022-08-22T06:55:54.951Z,7.28
2022-08-22T06:58:40.546Z,8.35
2022-08-22T07:01:12.932Z,7.72
2022-08-22T07:03:44.488Z,7.00
2022-08-22T07:06:17.633Z,8.05
2022-08-22T07:08:45.511Z,7.32
2022-08-22T07:11:21.730Z,7.20
2022-08-22T07:13:54.177Z,8.20
2022-08-22T07:16:39.347Z,8.30
2022-08-22T07:19:07.518Z,9.18
2022-08-22T07:21:45.701Z,8.00
2022-08-22T07:24:15.412Z,8.43
2022-08-22T07:27:08.862Z,8.90
2022-08-22T07:29:47.798Z,8.13
2022-08-22T07:32:25.550Z,8.65
2022-08-22T07:35:08.642Z,8.32
2022-08-22T07:37:42.038Z,7.60
2022-08-22T07:40:20.959Z,8.65
2022-08-22T07:42:52.723Z,7.87
2022-08-22T07:45:37.340Z,8.50
2022-08-22T07:48:26.223Z,6.90
2022-08-22T07:51:13.824Z,9.70
2022-08-22T07:53:49.583Z,8.65
2022-08-22T07:56:21.058Z,9.65
2022-08-22T07:58:53.396Z,8.77
2022-08-22T08:01:21.787Z,10.15
2022-08-22T08:03:54.758Z,9.45
2022-08-22T08:06:25.457Z,8.40
2022-08-22T08:08:53.183Z,9.35
2022-08-22T08:11:21.029Z,10.10
2022-08-22T08:13:52.350Z,8.82
2022-08-22T08:16:22.494Z,10.43
2022-08-22T08:18:50.750Z,9.95
2022-08-22T08:21:25.469Z,10.45
2022-08-22T08:23:53.385Z,9.60
2022-08-22T08:26:26.901Z,10.35
2022-08-22T08:28:55.596Z,7.68
2022-08-22T08:31:27.823Z,10.60
2022-08-22T08:34:03.304Z,9.20
2022-08-22T08:36:50.989Z,10.02
2022-08-22T08:39:18.456Z,8.68
2022-08-22T08:42:08.219Z,7.37
2022-08-22T08:44:57.163Z,9.40
2022-08-22T08:47:49.046Z,10.10
2022-08-22T08:50:55.072Z,9.23
2022-08-22T08:53:50.938Z,9.93
2022-08-22T08:56:54.479Z,10.88
2022-08-22T08:59:49.817Z,9.75
2022-08-22T09:02:40.511Z,9.13
2022-08-22T09:05:38.149Z,8.52
2022-08-22T09:08:24.664Z,9.48
2022-08-22T09:11:42.658Z,8.65
2022-08-22T09:14:21.385Z,8.80
2022-08-22T09:17:10.395Z,8.73
2022-08-22T09:20:19.399Z,8.23
2022-08-22T09:23:10.986Z,7.57
2022-08-22T09:25:45.403Z,6.82
2022-08-22T09:28:34.988Z,7.78
2022-08-22T09:31:32.723Z,7.78
2022-08-22T09:34:23.844Z,9.48
2022-08-22T09:37:15.034Z,7.50
2022-08-22T09:40:01.183Z,8.32
2022-08-22T09:42:38.006Z,8.15
2022-08-22T09:45:11.643Z,7.43
2022-08-22T09:48:06.381Z,7.70
2022-08-22T09:51:04.665Z,8.13
2022-08-22T09:54:03.382Z,8.75
2022-08-22T09:56:37.069Z,9.45
2022-08-22T09:59:22.136Z,9.73
2022-08-22T10:02:01.596Z,7.47
2022-08-22T10:04:42.489Z,8.68
2022-08-22T10:07:40.887Z,8.95
2022-08-22T10:10:11.408Z,9.02
2022-08-22T10:12:50.106Z,8.93
2022-08-22T10:15:35.894Z,8.43
2022-08-22T10:18:28.886Z,8.95
2022-08-22T10:21:21.876Z,8.40
2022-08-22T10:23:59.237Z,7.90
2022-08-22T10:26:50.961Z,7.53
2022-08-22T10:29:49.932Z,8.05
2022-08-22T10:32:38.819Z,8.82
2022-08-22T10:35:27.869Z,8.20
2022-08-22T10:37:59.766Z,8.82
2022-08-22T10:40:40.178Z,8.13
2022-08-22T10:43:20.077Z,8.63
2022-08-22T10:45:50.630Z,10.13
2022-08-22T10:48:21.236Z,8.68
2022-08-22T10:50:51.622Z,8.15
2022-08-22T10:54:00.383Z,8.00
2022-08-22T10:56:43.743Z,9.80
2022-08-22T10:59:35.992Z,8.07
2022-08-22T11:02:18.948Z,8.27
2022-08-22T11:05:11.396Z,7.97
2022-08-22T11:07:48.681Z,8.82
2022-08-22T11:10:47.754Z,11.77
2022-08-22T11:13:14.937Z,11.80
2022-08-22T11:16:04.553Z,11.70
2022-08-22T11:19:02.122Z,10.85
2022-08-22T11:21:52.278Z,10.45
2022-08-22T11:24:35.446Z,12.57
2022-08-22T11:27:37.841Z,12.35
2022-08-22T11:30:07.389Z,13.10
2022-08-22T11:32:38.207Z,11.15
2022-08-22T11:35:15.102Z,12.48
2022-08-22T11:37:56.293Z,12.93
2022-08-22T11:40:46.854Z,14.32
2022-08-22T11:43:20.620Z,14.73
2022-08-22T11:45:51.475Z,14.10
2022-08-22T11:48:24.035Z,13.82
2022-08-22T11:51:13.123Z,11.90
2022-08-22T11:53:47.790Z,13.20
2022-08-22T11:56:32.509Z,11.05
2022-08-22T11:59:02.589Z,12.02
2022-08-22T12:02:04.014Z,10.60
2022-08-22T12:04:37.731Z,11.77
2022-08-22T12:07:17.193Z,12.20
2022-08-22T12:09:52.014Z,10.80
2022-08-22T12:12:25.302Z,11.18
2022-08-22T12:15:05.310Z,12.85
2022-08-22T12:17:54.920Z,13.73
2022-08-22T12:20:45.565Z,12.50
2022-08-22T12:23:15.917Z,13.27
2022-08-22T12:26:11.456Z,13.55
2022-08-22T12:28:44.832Z,14.85
2022-08-22T12:31:34.835Z,13.05
2022-08-22T12:34:20.344Z,14.00
2022-08-22T12:36:57.597Z,14.00
2022-08-22T12:39:53.159Z,14.27
2022-08-22T12:42:38.042Z,12.55
2022-08-22T12:45:30.164Z,12.65
2022-08-22T12:48:16.496Z,11.60
2022-08-22T12:50:57.317Z,12.27
2022-08-22T12:53:44.072Z,12.05
2022-08-22T12:56:14.500Z,10.50
2022-08-22T12:58:54.309Z,12.18
2022-08-22T13:01:33.751Z,10.18
2022-08-22T13:04:03.509Z,8.85
2022-08-22T13:06:33.722Z,8.65
2022-08-22T13:09:02.248Z,8.20
2022-08-22T13:11:30.948Z,8.23
2022-08-22T13:13:59.770Z,8.48
2022-08-22T13:16:36.423Z,9.15
2022-08-22T13:19:13.466Z,8.80
2022-08-22T13:22:01.603Z,9.15
2022-08-22T13:24:38.805Z,10.02
2022-08-22T13:27:10.951Z,10.15
2022-08-22T13:29:43.215Z,9.68
2022-08-22T13:32:19.058Z,7.97
2022-08-22T13:34:53.316Z,9.02
2022-08-22T13:37:41.657Z,8.10
2022-08-22T13:40:15.734Z,7.78
2022-08-22T13:42:48.395Z,7.50
2022-08-22T13:45:24.041Z,7.65
2022-08-22T13:48:02.731Z,8.95
2022-08-22T13:50:53.569Z,8.75
2022-08-22T13:53:28.626Z,8.48
2022-08-22T13:56:01.499Z,7.50
2022-08-22T13:58:38.797Z,7.85
2022-08-22T14:01:25.422Z,7.65
2022-08-22T14:04:33.278Z,7.62
2022-08-22T14:07:06.385Z,8.73
2022-08-22T14:09:51.339Z,8.20
2022-08-22T14:12:25.193Z,7.90
2022-08-22T14:15:01.338Z,7.53
2022-08-22T14:17:42.681Z,8.25
2022-08-22T14:20:32.245Z,7.22
2022-08-22T14:23:22.774Z,6.53
2022-08-22T14:25:51.674Z,5.00
2022-08-22T14:28:38.075Z,5.00
2022-08-22T14:31:13.230Z,3.45
2022-08-22T14:33:48.060Z,2.97
2022-08-22T14:36:18.927Z,3.62
2022-08-22T14:39:06.290Z,2.90
2022-08-22T14:41:52.998Z,2.60
2022-08-22T14:44:31.323Z,3.42
2022-08-22T14:47:00.815Z,2.95
2022-08-22T14:49:48.827Z,2.92
2022-08-22T14:52:30.085Z,2.33
2022-08-22T14:55:21.548Z,2.28
2022-08-22T14:58:03.259Z,2.60
2022-08-22T15:00:39.132Z,2.58
2022-08-22T15:03:14.807Z,2.78
2022-08-22T15:06:09.826Z,2.95
2022-08-22T15:08:42.282Z,2.20
2022-08-22T15:11:21.865Z,3.05
2022-08-22T15:14:12.660Z,2.60
2022-08-22T15:16:43.023Z,2.80
2022-08-22T15:19:41.405Z,2.97
2022-08-22T15:22:19.356Z,2.60
2022-08-22T15:25:28.710Z,2.65
2022-08-22T15:27:59.858Z,2.47
2022-08-22T15:30:44.161Z,2.50
2022-08-22T15:33:21.778Z,2.45
2022-08-22T15:35:51.125Z,2.70
2022-08-22T15:38:28.985Z,2.40
2022-08-22T15:40:57.171Z,2.58
2022-08-22T15:43:35.010Z,2.42
2022-08-22T15:46:25.921Z,2.28
2022-08-22T15:49:00.974Z,2.15
2022-08-22T15:51:50.323Z,2.20
2022-08-22T15:54:25.661Z,1.77
2022-08-22T15:56:53.646Z,2.50
2022-08-22T15:59:53.805Z,1.80
2022-08-22T16:02:35.098Z,1.60
2022-08-22T16:05:09.327Z,1.50
2022-08-22T16:07:58.461Z,1.48
2022-08-22T16:10:25.893Z,1.62
2022-08-22T16:13:14.884Z,1.35
2022-08-22T16:15:52.615Z,1.50
2022-08-22T16:18:44.551Z,1.23
2022-08-22T16:21:15.842Z,1.37
2022-08-22T16:23:46.154Z,1.67
2022-08-22T16:26:45.111Z,1.27
2022-08-22T16:29:17.839Z,1.02
2022-08-22T16:31:48.849Z,1.30
2022-08-22T16:34:19.050Z,1.25
2022-08-22T16:37:08.485Z,1.48
2022-08-22T16:39:37.565Z,1.30
2022-08-22T16:42:22.396Z,1.30
2022-08-22T16:45:10.989Z,1.37
2022-08-22T16:47:52.206Z,1.62
2022-08-22T16:50:31.431Z,1.10
2022-08-22T16:53:00.321Z,1.30
2022-08-22T16:55:30.701Z,1.50
2022-08-22T16:58:19.582Z,1.10
2022-08-22T17:00:59.474Z,1.20
2022-08-22T17:03:32.785Z,1.35
2022-08-22T17:06:32.226Z,1.60
2022-08-22T17:09:27.611Z,1.52
2022-08-22T17:12:14.085Z,1.27
2022-08-22T17:14:43.774Z,1.23
2022-08-22T17:17:20.379Z,1.20
2022-08-22T17:23:02.519Z,1.50
2022-08-22T17:25:44.963Z,1.67
2022-08-22T17:28:34.035Z,1.20
2022-08-22T17:31:16.243Z,1.60
2022-08-22T17:34:28.788Z,1.30
2022-08-22T17:37:21.645Z,2.00
2022-08-22T17:40:10.244Z,1.20
2022-08-22T17:42:40.660Z,1.12
2022-08-22T17:45:28.197Z,1.35
2022-08-22T17:48:16.678Z,1.58
2022-08-22T17:51:02.563Z,1.37
2022-08-22T17:53:41.089Z,1.50
2022-08-22T17:56:41.546Z,1.10
2022-08-22T17:59:28.168Z,1.98
2022-08-22T18:02:10.874Z,1.55
2022-08-22T18:04:56.656Z,1.62
2022-08-22T18:07:33.575Z,1.20
2022-08-22T18:10:38.324Z,1.60
2022-08-22T18:16:12.142Z,1.37
2022-08-22T18:18:44.965Z,1.75
2022-08-22T18:21:35.442Z,1.42
2022-08-22T18:24:17.134Z,1.70
2022-08-22T18:26:51.203Z,1.75
2022-08-22T18:29:25.250Z,1.60
2022-08-22T18:32:11.610Z,2.00
2022-08-22T18:35:04.077Z,2.12
2022-08-22T18:37:31.781Z,2.12
2022-08-22T18:40:27.151Z,1.83
2022-08-22T18:42:58.213Z,1.90
2022-08-22T18:45:44.706Z,1.50
2022-08-22T18:48:20.814Z,1.58
2022-08-22T18:50:48.496Z,1.40
2022-08-22T18:53:37.299Z,1.60
2022-08-22T18:56:20.428Z,1.67
2022-08-22T18:59:05.491Z,1.85
2022-08-22T19:02:11.009Z,2.12
2022-08-22T19:04:50.949Z,1.75
2022-08-22T19:07:30.879Z,1.30
2022-08-22T19:10:34.388Z,2.10
2022-08-22T19:13:39.463Z,1.92
2022-08-22T19:16:19.063Z,2.45
2022-08-22T19:18:58.422Z,1.87
2022-08-22T19:21:47.901Z,2.08
2022-08-22T19:24:27.609Z,2.60
2022-08-22T19:27:07.281Z,2.20
2022-08-22T19:29:34.568Z,2.83
2022-08-22T19:32:11.870Z,2.40
2022-08-22T19:34:41.814Z,2.80
2022-08-22T19:37:32.281Z,2.70
2022-08-22T19:40:10.988Z,2.35
2022-08-22T19:42:39.940Z,2.83
2022-08-22T19:45:26.566Z,2.50
2022-08-22T19:47:59.792Z,2.37
2022-08-22T19:50:35.473Z,2.70
2022-08-22T19:53:24.602Z,2.87
2022-08-22T19:56:17.581Z,2.45
2022-08-22T19:59:11.364Z,3.00
2022-08-22T20:02:01.563Z,2.40
2022-08-22T20:04:47.021Z,2.40
2022-08-22T20:07:42.189Z,2.30
2022-08-22T20:10:51.946Z,2.12
2022-08-22T20:13:24.282Z,2.90
2022-08-22T20:16:44.270Z,2.08
2022-08-22T20:19:12.091Z,2.00
2022-08-22T20:21:48.334Z,2.10
2022-08-22T20:24:39.583Z,2.58
2022-08-22T20:27:17.321Z,2.70
2022-08-22T20:29:55.121Z,3.03
2022-08-22T20:32:23.700Z,2.65
2022-08-22T20:34:54.505Z,3.08
2022-08-22T20:37:40.407Z,3.30
2022-08-22T20:40:56.318Z,3.40
2022-08-22T20:43:39.534Z,3.08
2022-08-22T20:46:35.597Z,3.40
2022-08-22T20:51:31.546Z,3.95
2022-08-22T20:54:10.073Z,4.00
2022-08-22T20:56:54.457Z,4.20
2022-08-22T20:59:30.643Z,4.22
2022-08-22T21:02:07.303Z,4.15
2022-08-22T21:07:22.318Z,5.40
2022-08-22T21:10:27.383Z,4.30
2022-08-22T21:13:11.054Z,3.97
2022-08-22T21:15:43.896Z,4.32
2022-08-22T21:18:13.139Z,4.82
2022-08-22T21:20:40.574Z,5.10
2022-08-22T21:23:14.465Z,5.30
2022-08-22T21:25:57.969Z,5.75
2022-08-22T21:28:57.579Z,6.75
2022-08-22T21:31:31.153Z,7.57
2022-08-22T21:33:58.765Z,7.53
2022-08-22T21:36:29.348Z,7.60
2022-08-22T21:39:03.713Z,8.98
2022-08-22T21:41:38.952Z,7.35
2022-08-22T21:44:30.682Z,7.95
2022-08-22T21:47:33.599Z,8.20
2022-08-22T21:50:13.124Z,9.05
2022-08-22T21:52:59.788Z,9.35
2022-08-22T21:55:34.377Z,9.63
2022-08-22T21:58:05.016Z,10.50
2022-08-22T22:00:54.854Z,9.98
2022-08-22T22:03:24.968Z,11.05
2022-08-22T22:05:54.708Z,10.07
2022-08-22T22:08:22.078Z,10.70
2022-08-22T22:10:50.082Z,11.15
2022-08-22T22:13:18.880Z,10.63
2022-08-22T22:15:46.925Z,11.05
2022-08-22T22:18:16.319Z,10.55
2022-08-22T22:20:46.817Z,9.15
2022-08-22T22:23:14.324Z,10.38
2022-08-22T22:25:42.421Z,10.63
2022-08-22T22:28:13.930Z,9.57
2022-08-22T22:30:41.644Z,10.98
2022-08-22T22:33:09.556Z,11.05
2022-08-22T22:35:40.608Z,10.35
2022-08-22T22:38:08.436Z,11.07
2022-08-22T22:40:35.852Z,10.40
2022-08-22T22:43:03.269Z,10.60
2022-08-22T22:45:30.896Z,8.70
2022-08-22T22:47:58.374Z,10.43
2022-08-22T22:50:26.092Z,10.75
2022-08-22T22:52:54.183Z,11.02
2022-08-22T22:55:24.969Z,10.95
2022-08-22T22:57:59.001Z,10.40
2022-08-22T23:00:30.952Z,8.85
2022-08-22T23:03:00.471Z,8.70
2022-08-22T23:05:29.452Z,8.10
2022-08-22T23:07:57.237Z,7.70
2022-08-22T23:10:25.330Z,7.97
2022-08-22T23:12:53.006Z,8.10
2022-08-22T23:15:20.396Z,6.65
2022-08-22T23:17:47.884Z,6.78
2022-08-22T23:20:15.481Z,6.97
2022-08-22T23:22:44.986Z,6.03
2022-08-22T23:25:12.394Z,6.95
2022-08-22T23:27:40.146Z,6.72
2022-08-22T23:30:09.122Z,6.30
2022-08-22T23:32:36.982Z,6.35
2022-08-22T23:35:05.152Z,7.22
2022-08-22T23:37:32.525Z,6.25
2022-08-22T23:39:59.992Z,6.90
2022-08-22T23:42:29.330Z,6.10
2022-08-22T23:44:56.707Z,6.12
2022-08-22T23:47:24.124Z,6.87
2022-08-22T23:49:51.725Z,6.00
2022-08-22T23:52:19.100Z,6.20
2022-08-22T23:54:46.508Z,6.20
2022-08-22T23:57:14.683Z,5.60
2022-08-22T23:59:48.585Z,6.82
